General Francisco Javier Mina International Airport
MMTM : now visible

Airfield :











YOU CAN JOIN US ON...

 
LOGIN :

Register | Disclaimer

   EN    FR    IT 

 









Legend :    VFR   Marginal VFR   IFR   Intensive IFR   Very Intensive IFR
Visi :
Ceiling :
>= 8 km
>= 3000ft
5 to 8 km
1000 to 3000 ft
1500m to 5 km
500 to 1000 ft
800 to 1500m
200 to 500 ft
< 800m
< 200 ft
Symbols :   Thunderstorms  Fog  Heavy snow  Heavy precipitations  Wind > 20 kt






- Airport Elevation : 80 ft
- IATA code : TAM


MMTM - General Francisco Javier Mina International

CURRENT METAR :
  • 280050Z 06007KT 8SM BKN200 27/24 A2985 RMK 8/008

EXPIRED METARs :
  • 272357Z RTD 07009KT 8SM SCT200 28/23 A2984 RMK SLP090 57018 993 8/008
  • 272244Z 08006KT 8SM FEW200 30/24 A2981 RMK 8/002

TAF TAF MMTM
Valid from the 27 at 18:00 until the 28 at 18:00 UTC


271630Z 2718/2818 08008KT 5SM HZ BKN025 BKN080
FM280200 13006KT 6SM HZ BKN015
TEMPO 2810/2814 2SM BR BKN008
FM281600 13010KT 5SM HZ BKN015 BKN090
MMFR FIR / North America



MET'MAP, your aeronautical weather chart ! - Copyright ORBIFLY December 2007 - Disclaimer

ORBIFLY MET'MAP TEAM :

Programming & Development : Alexandra Zaïnal
Concept & original design : Baudouin d'Aumeries
Assistance for programming : Marc-Olivier Méhu
Technical & hardware support : Manuel Goepfert

Contact : metmap@orbifly.com




SOURCES & CREDITS :

   NOAA       Earth
Advisory